Time;durP1;ratioP1;P1;durP2;ratioP2;P2;SDS_P1;SDS_P2;PMS_P1;PMS_P2;Temp;Humidity;BMP_temperature;BMP_pressure;BME280_temperature;BME280_humidity;BME280_pressure;Samples;Min_cycle;Max_cycle;Signal;HPM_P1;HPM_P2
2023/02/24 00:00:31;;;;;;;26.93;17.50;;;10.50;99.90;;;;;;5028696;28;20449;-71
2023/02/24 00:03:16;;;;;;;28.67;17.50;;;10.50;99.90;;;;;;5039135;28;20446;-71
2023/02/24 00:06:08;;;;;;;33.10;19.63;;;10.50;99.90;;;;;;5023383;28;20965;-72
2023/02/24 00:08:54;;;;;;;25.80;17.37;;;10.50;99.90;;;;;;5030922;28;20489;-71
2023/02/24 00:11:43;;;;;;;30.20;18.87;;;10.30;99.90;;;;;;5023143;28;20481;-71
2023/02/24 00:14:31;;;;;;;33.83;18.33;;;10.30;99.90;;;;;;5030136;28;20788;-71
2023/02/24 00:17:17;;;;;;;33.20;19.13;;;10.30;99.90;;;;;;5030505;28;20449;-71
2023/02/24 00:20:05;;;;;;;28.60;18.37;;;10.30;99.90;;;;;;5029572;28;20447;-71
2023/02/24 00:22:52;;;;;;;30.10;17.83;;;10.20;99.90;;;;;;5027121;28;20432;-71
2023/02/24 00:25:38;;;;;;;31.40;19.73;;;10.30;99.90;;;;;;5021135;28;20501;-71
2023/02/24 00:28:24;;;;;;;29.70;17.60;;;10.30;99.90;;;;;;5031550;28;20447;-71
2023/02/24 00:31:12;;;;;;;35.17;19.50;;;10.30;99.90;;;;;;5023908;28;20444;-72
2023/02/24 00:33:59;;;;;;;35.20;20.17;;;10.30;99.90;;;;;;5029975;28;20458;-71
2023/02/24 00:36:45;;;;;;;32.23;20.60;;;10.30;99.90;;;;;;5033123;28;20485;-71
2023/02/24 00:39:34;;;;;;;37.03;19.00;;;10.30;99.90;;;;;;5024169;28;20428;-72
2023/02/24 00:42:21;;;;;;;39.83;22.43;;;10.20;99.90;;;;;;5029801;28;20435;-71
2023/02/24 00:45:09;;;;;;;37.03;21.13;;;10.20;99.90;;;;;;5027513;28;20540;-72
2023/02/24 00:47:56;;;;;;;35.80;21.37;;;10.20;99.90;;;;;;5020548;28;20574;-71
2023/02/24 00:50:42;;;;;;;41.43;22.10;;;10.10;99.90;;;;;;5020849;28;20450;-72
2023/02/24 00:53:28;;;;;;;39.87;22.43;;;10.10;99.90;;;;;;5030755;28;20868;-72
2023/02/24 00:56:15;;;;;;;37.07;22.83;;;10.00;99.90;;;;;;5033286;28;20441;-71
2023/02/24 00:59:02;;;;;;;39.63;23.07;;;10.00;99.90;;;;;;5030523;28;20453;-71
2023/02/24 01:01:49;;;;;;;38.10;20.23;;;10.00;99.90;;;;;;5026726;28;20442;-71
2023/02/24 01:04:36;;;;;;;41.20;20.77;;;10.00;99.90;;;;;;5030177;28;20497;-71
2023/02/24 01:07:21;;;;;;;32.67;19.93;;;10.00;99.90;;;;;;5028303;28;20578;-71
2023/02/24 01:10:07;;;;;;;34.13;20.90;;;10.00;99.90;;;;;;5026959;28;20424;-71
2023/02/24 01:12:53;;;;;;;40.33;22.23;;;9.90;99.90;;;;;;5039846;28;20797;-71
2023/02/24 01:15:39;;;;;;;36.20;21.60;;;10.00;99.90;;;;;;5021796;28;20436;-71
2023/02/24 01:18:26;;;;;;;42.60;20.40;;;10.00;99.90;;;;;;5026884;28;20464;-72
2023/02/24 01:21:13;;;;;;;39.13;21.23;;;9.90;99.90;;;;;;5029159;28;21304;-71
2023/02/24 01:23:59;;;;;;;34.50;20.50;;;9.90;99.90;;;;;;5023241;28;20445;-71
2023/02/24 01:26:44;;;;;;;37.03;22.00;;;9.90;99.90;;;;;;5022755;28;22513;-71
2023/02/24 01:29:32;;;;;;;38.03;19.80;;;9.90;99.90;;;;;;5019104;28;20473;-71
2023/02/24 01:32:20;;;;;;;37.43;21.17;;;9.90;99.90;;;;;;5033683;28;20477;-71
2023/02/24 01:35:06;;;;;;;38.10;22.27;;;9.80;99.90;;;;;;5043664;28;20468;-72
2023/02/24 01:37:52;;;;;;;43.80;21.80;;;9.80;99.90;;;;;;5028016;28;20433;-72
2023/02/24 01:40:38;;;;;;;36.60;21.20;;;9.70;99.90;;;;;;5036605;22;21064;-73
2023/02/24 01:43:24;;;;;;;33.97;21.07;;;9.70;99.90;;;;;;5021585;28;20481;-73
2023/02/24 01:46:12;;;;;;;38.40;19.17;;;9.70;99.90;;;;;;5016259;28;20504;-73
2023/02/24 01:49:01;;;;;;;33.70;18.40;;;9.70;99.90;;;;;;5010165;28;20533;-73
2023/02/24 01:51:51;;;;;;;34.27;18.53;;;9.70;99.90;;;;;;5011002;28;20498;-73
2023/02/24 01:54:41;;;;;;;38.87;21.50;;;9.70;99.90;;;;;;5006693;28;20583;-73
2023/02/24 01:57:30;;;;;;;40.73;21.40;;;9.60;99.90;;;;;;5016795;28;20451;-73
2023/02/24 02:00:35;;;;;;;43.07;20.80;;;9.60;99.90;;;;;;5004183;28;20482;-73
2023/02/24 02:03:28;;;;;;;42.73;20.47;;;9.50;99.90;;;;;;5016061;28;20825;-73
2023/02/24 02:06:16;;;;;;;37.17;20.27;;;9.60;99.90;;;;;;5015823;28;20421;-73
2023/02/24 02:09:02;;;;;;;41.50;20.30;;;9.60;99.90;;;;;;5011034;28;20475;-73
2023/02/24 02:11:49;;;;;;;37.57;19.80;;;9.60;99.90;;;;;;5015872;28;21313;-73
2023/02/24 02:14:38;;;;;;;35.33;19.43;;;9.60;99.90;;;;;;5017962;28;20449;-73
2023/02/24 02:17:31;;;;;;;34.70;18.70;;;9.60;99.90;;;;;;5005765;28;20448;-73
2023/02/24 02:21:07;;;;;;;38.37;19.90;;;9.60;99.90;;;;;;5005654;28;21111;-73
2023/02/24 02:24:18;;;;;;;39.03;20.00;;;9.50;99.90;;;;;;5010915;28;20446;-72
2023/02/24 02:27:44;;;;;;;34.60;19.80;;;9.60;99.90;;;;;;5018570;28;20459;-73
2023/02/24 02:30:54;;;;;;;42.97;20.83;;;9.60;99.90;;;;;;5013758;28;20466;-73
2023/02/24 02:34:18;;;;;;;37.60;20.10;;;9.60;99.90;;;;;;5016482;28;20439;-73
2023/02/24 02:37:11;;;;;;;40.90;21.00;;;9.60;99.90;;;;;;5004344;28;20970;-73
2023/02/24 02:40:16;;;;;;;40.97;20.43;;;9.60;99.90;;;;;;5010997;28;20456;-73
2023/02/24 02:43:05;;;;;;;39.90;19.07;;;9.70;99.90;;;;;;5014532;28;20439;-73
2023/02/24 02:45:56;;;;;;;36.67;20.00;;;9.70;99.90;;;;;;5017003;28;20459;-74
2023/02/24 02:48:49;;;;;;;44.83;19.23;;;9.70;99.90;;;;;;5009629;28;20526;-72
2023/02/24 02:51:40;;;;;;;34.97;20.63;;;9.70;99.90;;;;;;5019522;28;20471;-72
2023/02/24 02:54:33;;;;;;;35.57;18.43;;;9.70;99.90;;;;;;5012348;28;20966;-73
2023/02/24 02:57:23;;;;;;;36.33;20.10;;;9.70;99.90;;;;;;5016974;28;20501;-74
2023/02/24 03:00:20;;;;;;;38.50;19.80;;;9.70;99.90;;;;;;5010303;28;20491;-73
2023/02/24 03:03:11;;;;;;;38.30;20.47;;;9.70;99.90;;;;;;5016169;28;20802;-73
2023/02/24 03:06:02;;;;;;;41.40;21.03;;;9.70;99.90;;;;;;5010668;28;20451;-73
2023/02/24 03:08:53;;;;;;;37.63;20.63;;;9.70;99.90;;;;;;5009571;28;20563;-74
2023/02/24 03:11:42;;;;;;;41.70;20.83;;;9.70;99.90;;;;;;5015544;28;20832;-73
2023/02/24 03:14:32;;;;;;;39.63;20.53;;;9.80;99.90;;;;;;5019378;28;20918;-73
2023/02/24 03:17:22;;;;;;;35.43;19.43;;;9.70;99.90;;;;;;5016114;28;20459;-74
2023/02/24 03:20:21;;;;;;;39.27;20.47;;;9.70;99.90;;;;;;5014281;28;20548;-73
2023/02/24 03:23:15;;;;;;;37.87;19.77;;;9.70;99.90;;;;;;5013357;28;20971;-73
2023/02/24 03:26:08;;;;;;;33.50;18.83;;;9.70;99.90;;;;;;5019493;28;20589;-73
2023/02/24 03:29:02;;;;;;;40.20;19.07;;;9.70;99.90;;;;;;5006665;28;20459;-73
2023/02/24 03:31:52;;;;;;;36.20;21.10;;;9.70;99.90;;;;;;5007157;28;20838;-73
2023/02/24 03:34:46;;;;;;;37.27;19.13;;;9.70;99.90;;;;;;5013274;28;20934;-73
2023/02/24 03:37:32;;;;;;;41.83;19.73;;;9.60;99.90;;;;;;5009609;28;20774;-72
2023/02/24 03:40:20;;;;;;;38.50;20.17;;;9.70;99.90;;;;;;5023211;28;20473;-71
2023/02/24 03:43:12;;;;;;;39.07;18.97;;;9.70;99.90;;;;;;5017330;28;20455;-72
2023/02/24 03:46:00;;;;;;;37.53;20.40;;;9.70;99.90;;;;;;5009702;28;20518;-73
2023/02/24 03:48:50;;;;;;;33.57;17.83;;;9.70;99.90;;;;;;5011080;28;20455;-73
2023/02/24 03:51:36;;;;;;;37.33;19.83;;;9.60;99.90;;;;;;5018120;28;20557;-72
2023/02/24 03:54:36;;;;;;;37.50;20.27;;;9.60;99.90;;;;;;4999955;28;20978;-74
2023/02/24 03:57:33;;;;;;;48.40;21.40;;;9.60;99.90;;;;;;5015443;28;20502;-72
2023/02/24 04:00:25;;;;;;;38.00;19.77;;;9.50;99.90;;;;;;5015027;28;20478;-74
2023/02/24 04:03:24;;;;;;;36.73;20.07;;;9.40;99.90;;;;;;5020469;28;20442;-74
2023/02/24 04:06:13;;;;;;;36.07;20.13;;;9.40;99.90;;;;;;5012985;28;20418;-73
2023/02/24 04:09:07;;;;;;;42.73;20.93;;;9.30;99.90;;;;;;5012091;28;20450;-71
2023/02/24 04:11:58;;;;;;;40.60;20.00;;;9.20;99.90;;;;;;5015811;28;20906;-73
2023/02/24 04:14:50;;;;;;;44.50;21.50;;;9.10;99.90;;;;;;5016645;28;20805;-74
2023/02/24 04:17:40;;;;;;;39.53;21.40;;;9.00;99.90;;;;;;5006279;28;20605;-73
2023/02/24 04:20:31;;;;;;;41.20;20.40;;;8.90;99.90;;;;;;5010703;28;20931;-74
2023/02/24 04:23:21;;;;;;;40.90;20.30;;;8.90;99.90;;;;;;5013503;28;20574;-73
2023/02/24 04:26:07;;;;;;;43.53;21.60;;;8.90;99.90;;;;;;5017889;28;20890;-72
2023/02/24 04:28:55;;;;;;;41.30;21.10;;;8.90;99.90;;;;;;5010783;28;20413;-72
2023/02/24 04:31:40;;;;;;;44.37;22.00;;;9.00;99.90;;;;;;5023858;28;20480;-74
2023/02/24 04:34:31;;;;;;;40.97;20.70;;;9.00;99.90;;;;;;4998385;28;20429;-73
2023/02/24 04:37:21;;;;;;;39.30;21.40;;;9.00;99.90;;;;;;5005327;28;20853;-72
2023/02/24 04:40:11;;;;;;;40.67;20.33;;;9.00;99.90;;;;;;5017678;28;20543;-73
2023/02/24 04:42:56;;;;;;;41.43;21.00;;;8.90;99.90;;;;;;5014858;28;20524;-74
2023/02/24 04:45:43;;;;;;;42.00;18.50;;;8.90;99.90;;;;;;5019164;28;20422;-73
2023/02/24 04:48:29;;;;;;;48.00;20.60;;;8.80;99.90;;;;;;5004743;28;20447;-73
2023/02/24 04:51:15;;;;;;;34.93;18.80;;;8.90;99.90;;;;;;5019029;28;20576;-72
2023/02/24 04:54:02;;;;;;;33.87;18.37;;;8.80;99.90;;;;;;5013450;28;20828;-73
2023/02/24 04:56:49;;;;;;;44.73;21.97;;;8.80;99.90;;;;;;5005942;28;20448;-74
2023/02/24 04:59:36;;;;;;;40.37;19.97;;;8.80;99.90;;;;;;5012961;28;20517;-74
2023/02/24 05:02:22;;;;;;;45.50;22.20;;;8.80;99.90;;;;;;5013250;28;20466;-72
2023/02/24 05:05:08;;;;;;;41.67;19.33;;;8.90;99.90;;;;;;5009515;28;20942;-72
2023/02/24 05:08:00;;;;;;;44.07;22.33;;;8.90;99.90;;;;;;5006105;28;20579;-72
2023/02/24 05:10:47;;;;;;;38.53;21.80;;;8.90;99.90;;;;;;5015977;28;20486;-71
2023/02/24 05:13:36;;;;;;;46.03;23.10;;;8.80;99.90;;;;;;5017445;28;20474;-71
2023/02/24 05:16:22;;;;;;;39.47;20.63;;;8.80;99.90;;;;;;5006995;28;20448;-72
2023/02/24 05:22:13;;;;;;;42.30;20.30;;;8.80;99.90;;;;;;5012240;28;20445;-72
2023/02/24 05:24:58;;;;;;;38.87;19.70;;;8.80;99.90;;;;;;5013048;28;20598;-71
2023/02/24 05:27:46;;;;;;;41.97;19.80;;;8.90;99.90;;;;;;5007820;28;20856;-73
2023/02/24 05:30:32;;;;;;;39.50;19.30;;;8.90;99.90;;;;;;5016653;28;20898;-73
2023/02/24 05:33:20;;;;;;;39.10;19.70;;;8.90;99.90;;;;;;5015469;28;20440;-73
2023/02/24 05:36:08;;;;;;;41.47;21.70;;;8.90;99.90;;;;;;5003949;28;20443;-72
2023/02/24 05:38:56;;;;;;;41.93;21.10;;;8.80;99.90;;;;;;5012093;28;20421;-73
2023/02/24 05:41:43;;;;;;;47.07;22.50;;;8.80;99.90;;;;;;5005407;28;20821;-74
2023/02/24 05:44:30;;;;;;;46.90;23.10;;;8.70;99.90;;;;;;5000695;28;20466;-74
2023/02/24 05:47:18;;;;;;;46.50;21.90;;;8.60;99.90;;;;;;5011287;28;20521;-73
2023/02/24 05:50:04;;;;;;;50.00;23.10;;;8.40;99.90;;;;;;5014309;28;20440;-73
2023/02/24 05:52:50;;;;;;;45.80;22.13;;;8.50;99.90;;;;;;5023837;28;20445;-73
2023/02/24 05:55:36;;;;;;;42.77;22.00;;;8.60;99.90;;;;;;5000620;28;20443;-71
2023/02/24 05:58:23;;;;;;;46.47;21.70;;;8.50;99.90;;;;;;5016172;28;20443;-70
2023/02/24 06:01:15;;;;;;;46.53;21.43;;;8.60;99.90;;;;;;5013149;28;20469;-71
2023/02/24 06:04:06;;;;;;;48.00;22.70;;;8.50;99.90;;;;;;5013717;28;20441;-72
2023/02/24 06:06:52;;;;;;;44.83;21.80;;;8.50;99.90;;;;;;5005460;28;20422;-70
2023/02/24 06:09:41;;;;;;;44.13;22.60;;;8.50;99.90;;;;;;5004073;28;20431;-71
2023/02/24 06:12:29;;;;;;;45.10;22.00;;;8.50;99.90;;;;;;5017669;28;21147;-71
2023/02/24 06:15:16;;;;;;;47.80;23.50;;;8.50;99.90;;;;;;5003039;28;20438;-72
2023/02/24 06:18:03;;;;;;;53.30;24.07;;;8.50;99.90;;;;;;5016743;28;20488;-70
2023/02/24 06:20:50;;;;;;;52.90;24.10;;;8.40;99.90;;;;;;5023502;28;20441;-73
2023/02/24 06:23:35;;;;;;;45.72;23.63;;;8.40;99.90;;;;;;5006955;28;20458;-71
2023/02/24 06:26:21;;;;;;;50.60;24.57;;;8.40;99.90;;;;;;5008117;28;20282;-71
2023/02/24 06:29:07;;;;;;;49.63;24.20;;;8.50;99.90;;;;;;5012820;28;20512;-72
2023/02/24 06:31:53;;;;;;;49.33;23.67;;;8.60;99.90;;;;;;5018564;28;20441;-73
2023/02/24 06:34:40;;;;;;;46.53;25.20;;;8.70;99.90;;;;;;5010758;28;20482;-71
2023/02/24 06:37:26;;;;;;;57.83;23.27;;;8.70;99.90;;;;;;5014558;28;20980;-71
2023/02/24 06:40:14;;;;;;;46.27;23.90;;;8.70;99.90;;;;;;5023226;28;20532;-71
2023/02/24 06:43:01;;;;;;;51.50;22.53;;;8.80;99.90;;;;;;5019439;28;20445;-71
2023/02/24 06:45:46;;;;;;;48.90;22.37;;;8.80;99.90;;;;;;5009464;28;20440;-72
2023/02/24 06:48:33;;;;;;;45.87;21.87;;;8.70;99.90;;;;;;5015480;28;20454;-71
2023/02/24 06:51:22;;;;;;;44.37;21.23;;;8.70;99.90;;;;;;5015396;28;21071;-70
2023/02/24 06:54:07;;;;;;;47.73;22.67;;;8.70;99.90;;;;;;5019925;28;20622;-72
2023/02/24 06:56:53;;;;;;;47.30;23.03;;;8.80;99.90;;;;;;5012731;28;20448;-71
2023/02/24 06:59:38;;;;;;;51.90;23.60;;;8.80;99.90;;;;;;5017122;28;20454;-71
2023/02/24 07:02:32;;;;;;;58.30;25.63;;;8.80;99.90;;;;;;5021282;28;20513;-71
2023/02/24 07:05:17;;;;;;;52.20;25.77;;;8.80;99.90;;;;;;5008470;28;20421;-71
2023/02/24 07:08:07;;;;;;;52.30;27.30;;;8.90;99.90;;;;;;5012946;28;20465;-71
2023/02/24 07:10:54;;;;;;;51.23;23.87;;;8.80;99.90;;;;;;5010109;28;20553;-71
2023/02/24 07:13:41;;;;;;;53.50;25.20;;;8.80;99.90;;;;;;4998658;28;20467;-69
2023/02/24 07:16:28;;;;;;;53.63;23.43;;;8.90;99.90;;;;;;5010800;28;20662;-69
2023/02/24 07:19:15;;;;;;;52.07;24.03;;;8.90;99.90;;;;;;5013376;28;20442;-71
2023/02/24 07:22:02;;;;;;;47.33;23.40;;;8.90;99.90;;;;;;5012617;28;20457;-70
2023/02/24 07:24:49;;;;;;;46.13;21.07;;;9.00;99.90;;;;;;5006417;28;20809;-70
2023/02/24 07:27:36;;;;;;;48.57;22.80;;;9.10;99.90;;;;;;5010356;28;20424;-69
2023/02/24 07:30:21;;;;;;;48.40;24.20;;;9.20;99.90;;;;;;5009861;28;20449;-71
2023/02/24 07:33:07;;;;;;;51.93;24.20;;;9.20;99.90;;;;;;5010892;28;20469;-70
2023/02/24 07:35:52;;;;;;;51.20;25.20;;;9.20;99.90;;;;;;5001570;28;20503;-71
2023/02/24 07:38:39;;;;;;;60.20;29.93;;;9.20;99.90;;;;;;5010768;28;20497;-70
2023/02/24 07:41:26;;;;;;;59.73;30.37;;;9.20;99.90;;;;;;5023053;28;20491;-71
2023/02/24 07:44:13;;;;;;;50.33;23.87;;;9.30;99.90;;;;;;5005663;28;20463;-71
2023/02/24 07:46:59;;;;;;;43.20;22.60;;;9.30;99.90;;;;;;5014196;28;21608;-71
2023/02/24 07:49:45;;;;;;;51.13;22.47;;;9.40;99.90;;;;;;5011189;28;20975;-71
2023/02/24 07:52:31;;;;;;;49.03;23.60;;;9.40;99.90;;;;;;5014267;28;20542;-71
2023/02/24 07:55:17;;;;;;;54.13;25.17;;;9.50;99.90;;;;;;5004089;28;20443;-71
2023/02/24 07:58:04;;;;;;;50.33;23.63;;;9.50;99.90;;;;;;5017881;28;20454;-71
2023/02/24 08:00:58;;;;;;;44.53;20.40;;;9.50;99.90;;;;;;5025985;28;20428;-70
2023/02/24 08:03:44;;;;;;;43.10;22.23;;;9.50;99.90;;;;;;5016604;28;21052;-71
2023/02/24 08:06:36;;;;;;;60.33;24.20;;;9.50;99.90;;;;;;5006772;28;20509;-70
2023/02/24 08:12:26;;;;;;;44.40;20.33;;;9.60;99.90;;;;;;5011010;28;20502;-70
2023/02/24 08:18:12;;;;;;;48.10;22.80;;;9.60;99.90;;;;;;5006746;28;20442;-71
2023/02/24 08:21:03;;;;;;;48.50;22.90;;;9.60;99.90;;;;;;5000514;28;20920;-72
2023/02/24 08:23:48;;;;;;;45.13;21.13;;;9.60;99.90;;;;;;5002080;28;21323;-71
2023/02/24 08:26:43;;;;;;;44.50;22.10;;;9.60;99.90;;;;;;5010652;28;20439;-71
2023/02/24 08:29:30;;;;;;;42.30;20.90;;;9.60;99.90;;;;;;5011118;28;20454;-72
2023/02/24 08:32:17;;;;;;;43.70;21.80;;;9.60;99.90;;;;;;5015681;28;20491;-73
2023/02/24 08:35:03;;;;;;;43.37;20.67;;;9.60;99.90;;;;;;5002667;28;20474;-72
2023/02/24 08:37:51;;;;;;;42.43;20.73;;;9.70;99.90;;;;;;5026772;28;20485;-72
2023/02/24 08:40:49;;;;;;;45.90;22.23;;;9.80;99.90;;;;;;5011647;28;20877;-72
2023/02/24 08:43:39;;;;;;;44.67;22.70;;;9.90;99.90;;;;;;5009318;28;20455;-72
2023/02/24 08:46:31;;;;;;;41.27;22.20;;;10.00;99.90;;;;;;5016788;28;20431;-72
2023/02/24 08:49:19;;;;;;;37.77;21.30;;;10.00;99.90;;;;;;5017915;28;20860;-73
2023/02/24 08:52:06;;;;;;;38.87;20.13;;;9.80;99.90;;;;;;5023751;28;20546;-73
2023/02/24 08:54:53;;;;;;;37.63;20.23;;;9.80;99.90;;;;;;5008171;28;20526;-72
2023/02/24 08:57:38;;;;;;;41.87;21.10;;;9.80;99.90;;;;;;5005864;28;20398;-72
2023/02/24 09:00:47;;;;;;;40.77;21.47;;;9.80;99.90;;;;;;5020709;28;20455;-72
2023/02/24 09:03:32;;;;;;;37.27;19.77;;;9.90;99.90;;;;;;4998930;28;20802;-72
2023/02/24 09:06:24;;;;;;;36.77;19.37;;;10.00;99.90;;;;;;5018309;28;20875;-72
2023/02/24 09:09:21;;;;;;;41.40;22.07;;;10.10;99.90;;;;;;5009185;28;20880;-72
2023/02/24 09:12:06;;;;;;;41.37;21.33;;;10.00;99.90;;;;;;5012341;28;20431;-73
2023/02/24 09:14:59;;;;;;;40.80;21.20;;;10.10;99.90;;;;;;5014675;28;21006;-72
2023/02/24 09:17:49;;;;;;;44.00;22.20;;;10.10;99.90;;;;;;5013847;28;20426;-72
2023/02/24 09:23:44;;;;;;;49.50;25.53;;;10.30;99.90;;;;;;5004475;28;20456;-72
2023/02/24 09:26:31;;;;;;;56.60;28.57;;;10.30;99.90;;;;;;5014149;28;20456;-72
2023/02/24 09:32:16;;;;;;;47.13;26.37;;;10.60;99.90;;;;;;5007482;28;20979;-73
2023/02/24 09:35:02;;;;;;;47.73;24.30;;;10.70;99.90;;;;;;5012088;28;20610;-73
2023/02/24 09:37:48;;;;;;;39.00;23.30;;;10.90;99.90;;;;;;5012314;28;20432;-72
2023/02/24 09:40:47;;;;;;;46.40;21.73;;;10.90;99.90;;;;;;5014390;28;20481;-72
2023/02/24 09:43:43;;;;;;;40.67;22.30;;;11.00;99.90;;;;;;5003178;28;20864;-72
2023/02/24 09:46:32;;;;;;;43.20;23.63;;;10.80;99.90;;;;;;5016173;28;20407;-72
2023/02/24 09:49:18;;;;;;;70.67;33.97;;;10.60;99.90;;;;;;5001123;28;20451;-73
2023/02/24 09:52:07;;;;;;;61.57;28.37;;;10.70;99.90;;;;;;5007307;28;20450;-73
2023/02/24 09:55:17;;;;;;;71.63;30.90;;;10.90;99.90;;;;;;5009342;28;20454;-72
2023/02/24 09:58:23;;;;;;;104.90;39.20;;;10.90;99.90;;;;;;5016082;28;20422;-72
2023/02/24 10:01:21;;;;;;;89.27;37.73;;;10.70;99.90;;;;;;5012841;28;20458;-73
2023/02/24 10:04:47;;;;;;;102.00;37.00;;;10.70;99.90;;;;;;5021454;28;20778;-72
2023/02/24 10:07:38;;;;;;;54.97;27.10;;;10.90;99.90;;;;;;4966630;28;20432;-73
2023/02/24 10:10:27;;;;;;;76.07;35.60;;;10.70;99.90;;;;;;5009157;28;21113;-72
2023/02/24 10:13:29;;;;;;;55.53;27.10;;;10.60;99.90;;;;;;5002478;28;20428;-72
2023/02/24 10:16:22;;;;;;;77.07;31.90;;;10.60;99.90;;;;;;5014254;28;20505;-72
2023/02/24 10:19:23;;;;;;;57.47;26.93;;;10.50;99.90;;;;;;5013961;28;20510;-72
2023/02/24 10:22:26;;;;;;;43.10;23.93;;;10.30;99.90;;;;;;5004177;28;20426;-72
2023/02/24 10:25:34;;;;;;;49.67;26.73;;;10.40;99.90;;;;;;5013338;28;20966;-72
2023/02/24 10:28:34;;;;;;;49.80;27.13;;;10.40;99.90;;;;;;5017906;28;20424;-72
2023/02/24 10:31:34;;;;;;;45.60;23.77;;;10.30;99.90;;;;;;5014391;28;20964;-73
2023/02/24 10:34:30;;;;;;;45.00;23.37;;;10.30;99.90;;;;;;5008984;28;21009;-72
2023/02/24 10:37:18;;;;;;;49.20;25.33;;;10.30;99.90;;;;;;5030666;28;20572;-72
2023/02/24 10:40:09;;;;;;;49.97;26.00;;;10.20;99.90;;;;;;5010791;28;20479;-72
2023/02/24 10:43:09;;;;;;;52.37;24.63;;;10.20;99.90;;;;;;5010516;28;20454;-71
2023/02/24 10:46:04;;;;;;;44.70;25.20;;;10.20;99.90;;;;;;5021875;28;20430;-72
2023/02/24 10:48:59;;;;;;;50.67;25.53;;;10.20;99.90;;;;;;5013558;28;20426;-72
2023/02/24 10:51:52;;;;;;;46.27;24.20;;;10.40;99.90;;;;;;5006051;28;20520;-71
2023/02/24 10:55:03;;;;;;;45.50;23.80;;;10.50;99.90;;;;;;5011206;28;20480;-71
2023/02/24 10:57:54;;;;;;;47.00;23.87;;;10.60;99.90;;;;;;5014991;28;20436;-71
2023/02/24 11:01:11;;;;;;;47.50;23.90;;;10.70;99.90;;;;;;5010185;28;20446;-72
2023/02/24 11:04:21;;;;;;;39.97;22.33;;;11.00;99.90;;;;;;5024516;28;20430;-71
2023/02/24 11:07:23;;;;;;;38.83;22.53;;;11.30;99.90;;;;;;5011166;28;20431;-72
2023/02/24 11:10:13;;;;;;;46.63;23.63;;;11.60;99.90;;;;;;5015727;28;20678;-72
2023/02/24 11:19:12;;;;;;;45.90;23.87;;;11.80;99.90;;;;;;5006688;28;20969;-71
2023/02/24 11:21:58;;;;;;;48.10;24.33;;;11.60;99.90;;;;;;5015916;28;20414;-71
2023/02/24 11:24:45;;;;;;;39.60;21.77;;;11.50;99.90;;;;;;5009245;28;20940;-72
2023/02/24 11:27:31;;;;;;;43.90;23.80;;;11.50;99.90;;;;;;5008770;28;20463;-72
2023/02/24 11:30:29;;;;;;;43.00;23.50;;;11.20;99.90;;;;;;5008501;28;20444;-72
2023/02/24 11:33:29;;;;;;;46.73;25.20;;;11.10;99.90;;;;;;5007478;28;20592;-73
2023/02/24 11:36:25;;;;;;;42.60;22.20;;;11.20;99.90;;;;;;5009868;28;20502;-70
2023/02/24 11:39:31;;;;;;;38.37;21.27;;;11.20;99.90;;;;;;5008291;28;20982;-71
2023/02/24 11:42:24;;;;;;;42.87;24.20;;;11.10;99.90;;;;;;5009635;28;20440;-72
2023/02/24 11:45:24;;;;;;;43.10;22.13;;;11.00;99.90;;;;;;5011670;28;20518;-72
2023/02/24 11:48:14;;;;;;;46.47;23.80;;;10.90;99.90;;;;;;5002338;28;20426;-72
2023/02/24 11:51:03;;;;;;;40.40;22.10;;;11.00;99.90;;;;;;4999029;28;21007;-73
2023/02/24 11:53:53;;;;;;;40.20;20.93;;;10.90;99.90;;;;;;5005692;28;20784;-73
2023/02/24 11:56:43;;;;;;;41.63;22.90;;;10.90;99.90;;;;;;5012742;28;20492;-73
2023/02/24 11:59:37;;;;;;;42.47;20.90;;;10.80;99.90;;;;;;5013331;28;21181;-73
2023/02/24 12:02:34;;;;;;;40.53;21.60;;;10.80;99.90;;;;;;5008297;28;20413;-73
2023/02/24 12:05:24;;;;;;;39.40;19.53;;;10.90;99.90;;;;;;5007761;28;20425;-73
2023/02/24 12:08:20;;;;;;;34.40;18.80;;;10.80;99.90;;;;;;5010196;28;20513;-72
2023/02/24 12:11:15;;;;;;;35.50;19.50;;;10.80;99.90;;;;;;5011201;28;20463;-72
2023/02/24 12:14:15;;;;;;;43.33;20.83;;;10.90;99.90;;;;;;5008336;28;20422;-72
2023/02/24 12:17:10;;;;;;;39.70;20.40;;;10.90;99.90;;;;;;4998107;28;20422;-72
2023/02/24 12:20:04;;;;;;;39.00;20.00;;;10.80;99.90;;;;;;5009692;28;20991;-72
2023/02/24 12:22:54;;;;;;;44.47;21.33;;;10.80;99.90;;;;;;5003599;28;20420;-73
2023/02/24 12:26:07;;;;;;;36.03;20.40;;;10.70;99.90;;;;;;5004775;28;20428;-72
2023/02/24 12:29:26;;;;;;;44.40;20.50;;;10.70;99.90;;;;;;5011050;28;20841;-73
2023/02/24 12:32:23;;;;;;;39.30;20.60;;;10.80;99.90;;;;;;5018877;28;20540;-72
2023/02/24 12:35:18;;;;;;;43.33;21.27;;;10.90;99.90;;;;;;5008520;28;20614;-73
2023/02/24 12:38:18;;;;;;;40.60;21.50;;;10.90;99.90;;;;;;5007534;28;20470;-73
2023/02/24 12:41:16;;;;;;;45.13;22.87;;;11.00;99.90;;;;;;5009633;28;20622;-72
2023/02/24 12:44:16;;;;;;;38.20;20.97;;;11.10;99.90;;;;;;5010847;28;20550;-72
2023/02/24 12:47:06;;;;;;;39.60;21.43;;;11.10;99.90;;;;;;5000991;28;20977;-73
2023/02/24 12:50:09;;;;;;;43.30;22.40;;;11.00;99.90;;;;;;5009480;28;20514;-73
2023/02/24 12:53:05;;;;;;;40.40;21.00;;;11.00;99.90;;;;;;5009752;28;20534;-73
2023/02/24 12:56:01;;;;;;;40.43;21.30;;;11.10;99.90;;;;;;5013541;28;20449;-73
2023/02/24 12:58:51;;;;;;;43.70;21.13;;;11.40;99.90;;;;;;5007501;28;20422;-72
2023/02/24 13:01:48;;;;;;;43.10;22.93;;;11.90;99.90;;;;;;5009334;28;20444;-73
2023/02/24 13:04:40;;;;;;;54.73;23.33;;;12.40;99.90;;;;;;5002326;28;20433;-73
2023/02/24 13:07:42;;;;;;;48.67;25.10;;;12.70;99.90;;;;;;5005921;28;20458;-73
2023/02/24 13:10:34;;;;;;;37.57;20.20;;;12.60;99.90;;;;;;5018206;28;20429;-73
2023/02/24 13:13:26;;;;;;;33.87;17.77;;;12.40;99.90;;;;;;5010877;28;20526;-73
2023/02/24 13:16:12;;;;;;;37.37;19.90;;;11.90;99.90;;;;;;4999729;28;20501;-73
2023/02/24 13:19:17;;;;;;;41.60;20.10;;;11.80;99.90;;;;;;5011470;28;20518;-72
2023/02/24 13:22:07;;;;;;;35.00;18.37;;;11.90;99.90;;;;;;5008305;28;20630;-72
2023/02/24 13:24:59;;;;;;;37.83;17.57;;;12.00;99.90;;;;;;5002406;28;20510;-71
2023/02/24 13:27:54;;;;;;;33.30;17.50;;;12.40;99.90;;;;;;5009582;28;20954;-72
2023/02/24 13:30:43;;;;;;;34.50;18.00;;;12.90;99.90;;;;;;5013965;28;20441;-73
2023/02/24 13:33:31;;;;;;;36.60;17.73;;;13.00;95.20;;;;;;5016233;28;20474;-73
2023/02/24 13:36:20;;;;;;;32.57;17.10;;;13.00;93.60;;;;;;5008234;28;20491;-73
2023/02/24 13:39:08;;;;;;;28.83;15.90;;;12.80;94.00;;;;;;5017286;28;20494;-73
2023/02/24 13:42:03;;;;;;;27.07;15.47;;;12.60;93.90;;;;;;5054564;22;21032;-75
2023/02/24 13:44:52;;;;;;;29.63;17.30;;;12.60;95.00;;;;;;5009032;28;20539;-75
2023/02/24 13:47:52;;;;;;;32.33;15.00;;;12.60;94.20;;;;;;5027756;28;20940;-75
2023/02/24 13:50:52;;;;;;;27.10;15.70;;;12.50;94.50;;;;;;5015727;28;20458;-75
2023/02/24 13:53:57;;;;;;;28.23;15.00;;;12.50;95.00;;;;;;5017012;28;20595;-76
2023/02/24 13:56:50;;;;;;;27.70;14.43;;;12.40;94.10;;;;;;5003182;28;20478;-75
2023/02/24 13:59:50;;;;;;;27.77;14.07;;;12.40;92.40;;;;;;5005754;28;20454;-74
2023/02/24 14:02:41;;;;;;;26.60;14.10;;;12.20;92.30;;;;;;5004589;28;21240;-74
2023/02/24 14:05:30;;;;;;;23.40;13.27;;;12.10;92.80;;;;;;5005292;28;20517;-75
2023/02/24 14:08:20;;;;;;;25.40;12.80;;;12.00;93.00;;;;;;5018914;28;20474;-75
2023/02/24 14:11:10;;;;;;;35.60;13.90;;;11.80;93.40;;;;;;5009030;28;20593;-74
2023/02/24 14:13:57;;;;;;;23.90;13.37;;;11.60;93.50;;;;;;5011120;28;20859;-75
2023/02/24 14:16:46;;;;;;;24.07;13.33;;;11.40;94.10;;;;;;5009434;28;20525;-75
2023/02/24 14:19:32;;;;;;;23.03;12.30;;;11.30;95.10;;;;;;5010471;28;20451;-75
2023/02/24 14:22:20;;;;;;;24.23;11.17;;;11.30;94.40;;;;;;5012667;28;21000;-75
2023/02/24 14:25:08;;;;;;;21.23;10.80;;;11.30;93.90;;;;;;5010866;28;20418;-75
2023/02/24 14:27:56;;;;;;;20.60;11.27;;;11.30;93.60;;;;;;5013212;28;20430;-75
2023/02/24 14:30:42;;;;;;;19.60;11.00;;;11.30;94.50;;;;;;5018619;28;20455;-75
2023/02/24 14:33:31;;;;;;;28.20;13.53;;;11.30;93.90;;;;;;5019257;28;20956;-75
2023/02/24 14:36:19;;;;;;;19.43;10.70;;;11.40;94.60;;;;;;5008412;28;20556;-75
2023/02/24 14:39:09;;;;;;;23.33;11.40;;;11.40;93.40;;;;;;5015631;28;20439;-75
2023/02/24 14:42:10;;;;;;;17.47;9.17;;;11.40;92.00;;;;;;5018268;28;21055;-75
2023/02/24 14:44:58;;;;;;;19.20;9.13;;;11.50;92.00;;;;;;5004631;28;20434;-75
2023/02/24 14:47:44;;;;;;;15.67;9.03;;;11.40;90.40;;;;;;5021556;28;20464;-75
2023/02/24 14:50:33;;;;;;;18.63;9.00;;;11.30;90.50;;;;;;5018586;28;20429;-75
2023/02/24 14:53:22;;;;;;;15.67;8.50;;;11.30;88.90;;;;;;5019615;28;20435;-75
2023/02/24 14:56:11;;;;;;;13.07;8.40;;;11.30;87.60;;;;;;5014942;28;20562;-75